Cushing, OK

9:17 PM CST on January 19, 2018 (GMT -0600)
Cushing Municipal | | Change Station
Active Advisory: Fire Weather Watch

Elev 915 ft 35.95 °N, 96.77 °W | Updated 22 minutes ago

Mostly Cloudy
Mostly Cloudy
48 °F
Feels Like 48 °F
N
15
Wind Variable Wind from South
Gusts 22 mph

Today
High -- | Low -- °F
--% Chance of Precip.
Yesterday
High -- | Low -- °F
Precip. -- in
Pressure 29.91 in
Visibility 10.0 miles
Clouds Clear
Dew Point 38 °F
Humidity 69%
Rainfall 0.00 in
Snow Depth Not available.
7:35 AM 5:40 PM
Waxing Crescent, 8% visible
METAR KCUH 200255Z AUTO 18013G19KT 10SM CLR 09/03 A2991 RMK AO2 T00860032
Pressure 29.91 in
Visibility 10.0 miles
Clouds Clear
Dew Point 38 °F
Humidity 69%
Rainfall 0.00 in
Snow Depth Not available.
7:35 AM 5:40 PM
Waxing Crescent, 8% visible
METAR KCUH 200255Z AUTO 18013G19KT 10SM CLR 09/03 A2991 RMK AO2 T00860032

Get Your Daily Forecast Email!

Thanks for signing up!

Be on the lookout for a verification email in your inbox.

You'll start receiving severe weather alerts in your inbox..

×

10-Day Weather Forecast

Almanac

Astronomy

Jan. 19, 2018 Rise Set
Actual Time
Civil Twilight
Nautical Twilight
Astronomical Twilight
Moon
Length of Visible Light
Length of Day
Tomorrow will be .
, % of the Moon is Illuminated

Today's Extremes

State Highs State Lows

Community

WunderPhotos

Category 6

Welcome to Category 6. This is the collective home for Weather Underground's featured writeups by Dr. Jeff Masters (right), Bob Henson (left), Chris Burt, and other regular contributors.

Nearby

Air Quality

  Air Quality AQ Index Pollutant
Not available.

Snow Depth

Station Depth Elevation

Earthquake Activity

City Distance Mag. Time & Date
Minimum magnitude displayed is 2.5.

Coastal Water Temperatures

Place Temperature

Stations

Nearby Weather Stations

Station Location Temp. Windchill Dew Point Humidity Wind Precip. Elev Updated Type
                   

Watches & Warnings

Fire Weather Watch
Issued: 3:39 PM CST Jan. 19, 2018 – National Weather Service

... Fire Weather Watch remains in effect from Sunday morning
through Sunday evening for windy conditions... warm temperatures
and low relative humidity for mainly the western half of Oklahoma
and all of western North Texas...

* winds... southwest 25 to 35 mph with gusts 30 to 50 mph. The
strongest wind gusts are expected across western Oklahoma and
western North Texas Sunday afternoon. A cold front will bring a
wind shift to the northwest late Sunday afternoon into the
evening.

* Relative humidity... 10 to 30 percent.

* Temperature... highs 55 to 70 degrees f.

* Impacts... fires that develop will likely spread rapidly.
Outdoor burning is not recommended.

Precautionary/preparedness actions...

A Fire Weather Watch means that critical fire weather conditions
are forecast to occur. Listen for later forecasts and possible
red flag warnings.



Kurtz